createdAt,value
2018-02-17T00:00:40.735Z,1020.33
2018-02-17T00:01:50.693Z,1020.28
2018-02-17T00:03:00.423Z,1020.31
2018-02-17T00:04:10.387Z,1020.31
2018-02-17T00:05:20.355Z,1020.29
2018-02-17T00:06:30.050Z,1020.33
2018-02-17T00:07:39.487Z,1020.36
2018-02-17T00:08:49.183Z,1020.35
2018-02-17T00:09:58.887Z,1020.3
2018-02-17T00:11:08.328Z,1020.37
2018-02-17T00:12:18.031Z,1020.39
2018-02-17T00:13:27.462Z,1020.37
2018-02-17T00:14:37.417Z,1020.38
2018-02-17T00:15:46.862Z,1020.44
2018-02-17T00:16:56.563Z,1020.43
2018-02-17T00:18:06.535Z,1020.43
2018-02-17T00:19:16.508Z,1020.44
2018-02-17T00:20:25.970Z,1020.45
2018-02-17T00:21:35.954Z,1020.45
2018-02-17T00:22:45.932Z,1020.41
2018-02-17T00:23:55.643Z,1020.42
2018-02-17T00:25:05.612Z,1020.41
2018-02-17T00:26:15.323Z,1020.43
2018-02-17T00:27:25.300Z,1020.4
2018-02-17T00:28:35.010Z,1020.38
2018-02-17T00:29:44.713Z,1020.46
2018-02-17T00:30:54.674Z,1020.4
2018-02-17T00:32:04.634Z,1020.42
2018-02-17T00:33:14.601Z,1020.44
2018-02-17T00:34:24.564Z,1020.41
2018-02-17T00:35:34.287Z,1020.42
2018-02-17T00:36:43.984Z,1020.42
2018-02-17T00:37:53.942Z,1020.53
2018-02-17T00:39:03.902Z,1020.45
2018-02-17T00:40:13.870Z,1020.48
2018-02-17T00:41:23.898Z,1020.47
2018-02-17T00:42:33.590Z,1020.44
2018-02-17T00:43:43.040Z,1020.46
2018-02-17T00:44:53.002Z,1020.45
2018-02-17T00:46:03.131Z,1020.54
2018-02-17T00:47:12.830Z,1020.51
2018-02-17T00:48:22.792Z,1020.52
2018-02-17T00:49:32.482Z,1020.51
2018-02-17T00:50:42.469Z,1020.5
2018-02-17T00:51:52.432Z,1020.52
2018-02-17T00:53:02.146Z,1020.5
2018-02-17T00:54:11.842Z,1020.48
2018-02-17T00:55:21.811Z,1020.5
2018-02-17T00:56:31.775Z,1020.55
2018-02-17T00:57:41.721Z,1020.59
2018-02-17T00:58:51.411Z,1020.62
2018-02-17T01:00:00.849Z,1020.56
2018-02-17T01:01:10.554Z,1020.6
2018-02-17T01:02:20.254Z,1020.51
2018-02-17T01:03:29.967Z,1020.55
2018-02-17T01:04:39.678Z,1020.58
2018-02-17T01:05:49.638Z,1020.6
2018-02-17T01:06:59.605Z,1020.58
2018-02-17T01:08:09.577Z,1020.59
2018-02-17T01:09:19.016Z,1020.64
2018-02-17T01:10:28.722Z,1020.6
2018-02-17T01:11:38.698Z,1020.69
2018-02-17T01:12:48.660Z,1020.66
2018-02-17T01:13:58.121Z,1020.71
2018-02-17T01:15:07.819Z,1020.71
2018-02-17T01:16:17.517Z,1020.68
2018-02-17T01:17:27.464Z,1020.71
2018-02-17T01:18:37.421Z,1020.71
2018-02-17T01:19:47.378Z,1020.77
2018-02-17T01:20:57.088Z,1020.79
2018-02-17T01:22:07.049Z,1020.8
2018-02-17T01:23:17.010Z,1020.88
2018-02-17T01:24:26.980Z,1020.85
2018-02-17T01:25:36.685Z,1020.83
2018-02-17T01:26:46.390Z,1020.89
2018-02-17T01:27:56.344Z,1020.8
2018-02-17T01:29:06.300Z,1020.85
2018-02-17T01:30:16.011Z,1020.87
2018-02-17T01:31:25.969Z,1020.94
2018-02-17T01:32:35.404Z,1020.86
2018-02-17T01:33:45.369Z,1020.89
2018-02-17T01:34:55.071Z,1020.9
2018-02-17T01:36:05.038Z,1020.88
2018-02-17T01:37:14.748Z,1020.92
2018-02-17T01:38:23.925Z,1020.87
2018-02-17T01:39:33.885Z,1020.93
2018-02-17T01:40:43.849Z,1020.9
2018-02-17T01:41:53.543Z,1020.88
2018-02-17T01:43:02.991Z,1020.89
2018-02-17T01:44:12.432Z,1020.92
2018-02-17T01:45:21.873Z,1020.92
2018-02-17T01:46:31.848Z,1020.87
2018-02-17T01:47:42.050Z,1020.91
2018-02-17T01:48:51.764Z,1020.99
2018-02-17T01:50:01.714Z,1020.94
2018-02-17T01:51:11.409Z,1020.93
2018-02-17T01:52:20.852Z,1020.89
2018-02-17T01:53:30.810Z,1020.82
2018-02-17T01:54:40.765Z,1020.85
2018-02-17T01:55:50.459Z,1020.85
2018-02-17T01:56:59.895Z,1020.79
2018-02-17T01:58:09.071Z,1020.76
2018-02-17T01:59:18.242Z,1020.79
2018-02-17T02:00:28.188Z,1020.79
2018-02-17T02:01:37.612Z,1020.8
2018-02-17T02:02:47.304Z,1020.77
2018-02-17T02:03:57.253Z,1020.81
2018-02-17T02:05:07.200Z,1020.79
2018-02-17T02:06:16.633Z,1020.75
2018-02-17T02:07:26.627Z,1020.71
2018-02-17T02:08:36.586Z,1020.72
2018-02-17T02:09:46.806Z,1020.76
2018-02-17T02:10:56.505Z,1020.79
2018-02-17T02:12:06.199Z,1020.79
2018-02-17T02:13:16.144Z,1020.77
2018-02-17T02:14:25.834Z,1020.7
2018-02-17T02:15:35.788Z,1020.69
2018-02-17T02:16:45.747Z,1020.6
2018-02-17T02:17:55.493Z,1020.61
2018-02-17T02:19:05.487Z,1020.56
2018-02-17T02:20:15.444Z,1020.52
2018-02-17T02:21:25.623Z,1020.51
2018-02-17T02:22:35.572Z,1020.55
2018-02-17T02:23:45.009Z,1020.47
2018-02-17T02:24:54.702Z,1020.51
2018-02-17T02:26:04.399Z,1020.49
2018-02-17T02:27:13.833Z,1020.44
2018-02-17T02:28:23.009Z,1020.45
2018-02-17T02:29:32.720Z,1020.46
2018-02-17T02:30:42.409Z,1020.48
2018-02-17T02:31:51.840Z,1020.46
2018-02-17T02:33:01.556Z,1020.4
2018-02-17T02:34:11.264Z,1020.44
2018-02-17T02:35:21.229Z,1020.43
2018-02-17T02:36:30.668Z,1020.38
2018-02-17T02:37:40.377Z,1020.42
2018-02-17T02:38:50.100Z,1020.41
2018-02-17T02:39:59.806Z,1020.39
2018-02-17T02:41:09.508Z,1020.43
2018-02-17T02:42:19.218Z,1020.47
2018-02-17T02:43:29.175Z,1020.41
2018-02-17T02:44:38.625Z,1020.33
2018-02-17T02:45:48.598Z,1020.41
2018-02-17T02:46:58.041Z,1020.43
2018-02-17T02:48:08.005Z,1020.44
2018-02-17T02:49:17.702Z,1020.39
2018-02-17T02:50:27.673Z,1020.48
2018-02-17T02:51:37.384Z,1020.47
2018-02-17T02:52:47.351Z,1020.44
2018-02-17T02:53:57.054Z,1020.48
2018-02-17T02:55:06.257Z,1020.4
2018-02-17T02:56:15.690Z,1020.48
2018-02-17T02:57:25.381Z,1020.42
2018-02-17T02:58:35.351Z,1020.43
2018-02-17T02:59:44.550Z,1020.48
2018-02-17T03:00:54.248Z,1020.48
2018-02-17T03:02:04.207Z,1020.49
2018-02-17T03:03:14.152Z,1020.41
2018-02-17T03:04:23.848Z,1020.37
2018-02-17T03:05:33.826Z,1020.38
2018-02-17T03:06:43.531Z,1020.36
2018-02-17T03:07:53.274Z,1020.34
2018-02-17T03:09:02.980Z,1020.36
2018-02-17T03:10:12.933Z,1020.36
2018-02-17T03:11:22.114Z,1020.38
2018-02-17T03:12:32.065Z,1020.37
2018-02-17T03:13:42.029Z,1020.36
2018-02-17T03:14:51.982Z,1020.4
2018-02-17T03:16:02.056Z,1020.41
2018-02-17T03:17:12.010Z,1020.38
2018-02-17T03:18:21.445Z,1020.39
2018-02-17T03:19:31.141Z,1020.3
2018-02-17T03:20:40.846Z,1020.33
2018-02-17T03:21:50.797Z,1020.25
2018-02-17T03:23:00.764Z,1020.32
2018-02-17T03:24:10.726Z,1020.25
2018-02-17T03:25:20.684Z,1020.24
2018-02-17T03:26:30.376Z,1020.31
2018-02-17T03:27:40.345Z,1020.32
2018-02-17T03:28:50.304Z,1020.3
2018-02-17T03:29:59.996Z,1020.27
2018-02-17T03:31:09.733Z,1020.28
2018-02-17T03:32:19.445Z,1020.28
2018-02-17T03:33:29.634Z,1020.26
2018-02-17T03:34:39.333Z,1020.26
2018-02-17T03:35:49.024Z,1020.23
2018-02-17T03:36:58.723Z,1020.24
2018-02-17T03:38:08.682Z,1020.28
2018-02-17T03:39:18.635Z,1020.25
2018-02-17T03:40:28.095Z,1020.22
2018-02-17T03:41:37.541Z,1020.24
2018-02-17T03:42:47.236Z,1020.21
2018-02-17T03:43:56.929Z,1020.16
2018-02-17T03:45:06.624Z,1020.15
2018-02-17T03:46:16.059Z,1020.07
2018-02-17T03:47:26.010Z,1020.09
2018-02-17T03:48:35.973Z,1020.17
2018-02-17T03:49:45.679Z,1020.11
2018-02-17T03:50:55.376Z,1020.1
2018-02-17T03:52:05.065Z,1020.01
2018-02-17T03:53:14.782Z,1020.04
2018-02-17T03:54:24.743Z,1020.04
2018-02-17T03:55:34.210Z,1020.07
2018-02-17T03:56:43.653Z,1020.04
2018-02-17T03:57:53.341Z,1020
2018-02-17T03:59:03.289Z,1020.01
2018-02-17T04:00:12.750Z,1020.05
2018-02-17T04:01:22.436Z,1020.07
2018-02-17T04:02:32.132Z,1020.11
2018-02-17T04:03:41.828Z,1020.11
2018-02-17T04:04:51.786Z,1020.19
2018-02-17T04:06:01.745Z,1020.11
2018-02-17T04:07:11.702Z,1020.13
2018-02-17T04:08:21.394Z,1020.11
2018-02-17T04:09:31.086Z,1020.11
2018-02-17T04:10:41.041Z,1020.08
2018-02-17T04:11:50.732Z,1020.16
2018-02-17T04:13:00.687Z,1020.14
2018-02-17T04:14:10.633Z,1020.14
2018-02-17T04:15:20.332Z,1020.12
2018-02-17T04:16:30.030Z,1020.12
2018-02-17T04:17:40.002Z,1020.12
2018-02-17T04:18:49.445Z,1020.13
2018-02-17T04:19:59.390Z,1020.12
2018-02-17T04:21:09.336Z,1020.06
2018-02-17T04:22:19.278Z,1020.08
2018-02-17T04:23:28.979Z,1020.07
2018-02-17T04:24:38.682Z,1020.03
2018-02-17T04:25:48.644Z,1020.08
2018-02-17T04:26:58.081Z,1020.06
2018-02-17T04:28:07.785Z,1020.04
2018-02-17T04:29:17.733Z,1020.06
2018-02-17T04:30:27.692Z,1020.04
2018-02-17T04:31:37.388Z,1020.08
2018-02-17T04:32:47.092Z,1020.09
2018-02-17T04:33:56.798Z,1020.06
2018-02-17T04:35:06.490Z,1020.02
2018-02-17T04:36:16.453Z,1019.98
2018-02-17T04:37:26.145Z,1019.98
2018-02-17T04:38:36.105Z,1019.97
2018-02-17T04:39:45.537Z,1019.93
2018-02-17T04:40:55.488Z,1019.9
2018-02-17T04:42:04.916Z,1019.92
2018-02-17T04:43:14.871Z,1019.88
2018-02-17T04:44:24.816Z,1019.91
2018-02-17T04:45:34.515Z,1019.91
2018-02-17T04:46:44.467Z,1019.84
2018-02-17T04:47:54.422Z,1019.85
2018-02-17T04:49:03.870Z,1019.87
2018-02-17T04:50:13.561Z,1019.86
2018-02-17T04:51:23.517Z,1019.88
2018-02-17T04:52:33.208Z,1019.83
2018-02-17T04:53:42.906Z,1019.81
2018-02-17T04:54:52.861Z,1019.84
2018-02-17T04:56:02.827Z,1019.82
2018-02-17T04:57:12.780Z,1019.77
2018-02-17T04:58:22.472Z,1019.75
2018-02-17T04:59:32.175Z,1019.79
2018-02-17T05:00:41.881Z,1019.74
2018-02-17T05:01:51.061Z,1019.76
2018-02-17T05:03:00.755Z,1019.79
2018-02-17T05:04:10.190Z,1019.81
2018-02-17T05:05:19.642Z,1019.77
2018-02-17T05:06:29.083Z,1019.7
2018-02-17T05:07:38.525Z,1019.67
2018-02-17T05:08:48.221Z,1019.7
2018-02-17T05:09:57.923Z,1019.69
2018-02-17T05:11:07.367Z,1019.72
2018-02-17T05:12:16.556Z,1019.7
2018-02-17T05:13:26.515Z,1019.68
2018-02-17T05:14:36.484Z,1019.7
2018-02-17T05:15:46.223Z,1019.7
2018-02-17T05:16:55.911Z,1019.69
2018-02-17T05:18:05.609Z,1019.68
2018-02-17T05:19:15.562Z,1019.61
2018-02-17T05:20:25.521Z,1019.64
2018-02-17T05:21:35.222Z,1019.63
2018-02-17T05:22:45.188Z,1019.63
2018-02-17T05:23:54.887Z,1019.61
2018-02-17T05:25:04.906Z,1019.62
2018-02-17T05:26:14.358Z,1019.66
2018-02-17T05:27:23.790Z,1019.69
2018-02-17T05:28:33.480Z,1019.7
2018-02-17T05:29:43.171Z,1019.68
2018-02-17T05:30:53.137Z,1019.65
2018-02-17T05:32:02.865Z,1019.68
2018-02-17T05:33:12.571Z,1019.64
2018-02-17T05:34:22.516Z,1019.64
2018-02-17T05:35:31.944Z,1019.67
2018-02-17T05:36:41.387Z,1019.69
2018-02-17T05:37:51.331Z,1019.69
2018-02-17T05:39:01.281Z,1019.66
2018-02-17T05:40:11.249Z,1019.62
2018-02-17T05:41:21.195Z,1019.7
2018-02-17T05:42:30.888Z,1019.71
2018-02-17T05:43:40.588Z,1019.68
2018-02-17T05:44:50.025Z,1019.7
2018-02-17T05:45:59.987Z,1019.7
2018-02-17T05:47:09.934Z,1019.67
2018-02-17T05:48:19.397Z,1019.69
2018-02-17T05:49:29.345Z,1019.69
2018-02-17T05:50:39.306Z,1019.71
2018-02-17T05:51:49.314Z,1019.71
2018-02-17T05:52:59.017Z,1019.68
2018-02-17T05:54:08.966Z,1019.68
2018-02-17T05:55:18.910Z,1019.65
2018-02-17T05:56:28.605Z,1019.72
2018-02-17T05:57:38.555Z,1019.7
2018-02-17T05:58:47.999Z,1019.66
2018-02-17T05:59:57.698Z,1019.66
2018-02-17T06:01:07.668Z,1019.67
2018-02-17T06:02:17.118Z,1019.74
2018-02-17T06:03:26.558Z,1019.8
2018-02-17T06:04:35.998Z,1019.8
2018-02-17T06:05:45.967Z,1019.78
2018-02-17T06:06:55.682Z,1019.75
2018-02-17T06:08:05.384Z,1019.74
2018-02-17T06:09:14.816Z,1019.67
2018-02-17T06:10:24.775Z,1019.65
2018-02-17T06:11:33.955Z,1019.7
2018-02-17T06:12:43.655Z,1019.69
2018-02-17T06:13:53.611Z,1019.65
2018-02-17T06:15:03.558Z,1019.71
2018-02-17T06:16:13.506Z,1019.76
2018-02-17T06:17:23.457Z,1019.73
2018-02-17T06:18:33.410Z,1019.69
2018-02-17T06:19:43.101Z,1019.72
2018-02-17T06:20:52.540Z,1019.75
2018-02-17T06:22:02.494Z,1019.74
2018-02-17T06:23:12.474Z,1019.7
2018-02-17T06:24:22.425Z,1019.68
2018-02-17T06:25:32.369Z,1019.73
2018-02-17T06:26:42.052Z,1019.67
2018-02-17T06:27:51.739Z,1019.72
2018-02-17T06:29:01.440Z,1019.69
2018-02-17T06:30:11.414Z,1019.73
2018-02-17T06:31:21.367Z,1019.76
2018-02-17T06:32:31.324Z,1019.77
2018-02-17T06:33:41.028Z,1019.73
2018-02-17T06:34:50.740Z,1019.73
2018-02-17T06:36:00.705Z,1019.78
2018-02-17T06:37:10.407Z,1019.74
2018-02-17T06:38:20.362Z,1019.76
2018-02-17T06:39:30.060Z,1019.69
2018-02-17T06:40:40.018Z,1019.75
2018-02-17T06:41:49.959Z,1019.67
2018-02-17T06:42:59.398Z,1019.64
2018-02-17T06:44:09.415Z,1019.67
2018-02-17T06:45:19.361Z,1019.63
2018-02-17T06:46:29.066Z,1019.61
2018-02-17T06:47:39.028Z,1019.59
2018-02-17T06:48:48.980Z,1019.59
2018-02-17T06:49:58.178Z,1019.62
2018-02-17T06:51:08.188Z,1019.63
2018-02-17T06:52:17.625Z,1019.6
2018-02-17T06:53:27.320Z,1019.59
2018-02-17T06:54:36.764Z,1019.64
2018-02-17T06:55:46.209Z,1019.67
2018-02-17T06:56:55.921Z,1019.65
2018-02-17T06:58:05.927Z,1019.66
2018-02-17T06:59:15.882Z,1019.66
2018-02-17T07:00:25.617Z,1019.56
2018-02-17T07:01:35.307Z,1019.57
2018-02-17T07:02:45.280Z,1019.54
2018-02-17T07:03:54.711Z,1019.56
2018-02-17T07:05:04.664Z,1019.56
2018-02-17T07:06:14.110Z,1019.56
2018-02-17T07:07:24.083Z,1019.54
2018-02-17T07:08:34.056Z,1019.6
2018-02-17T07:09:43.510Z,1019.58
2018-02-17T07:10:52.949Z,1019.61
2018-02-17T07:12:02.900Z,1019.6
2018-02-17T07:13:12.618Z,1019.6
2018-02-17T07:14:22.070Z,1019.58
2018-02-17T07:15:32.026Z,1019.62
2018-02-17T07:16:41.464Z,1019.64
2018-02-17T07:17:50.907Z,1019.66
2018-02-17T07:19:00.626Z,1019.62
2018-02-17T07:20:09.810Z,1019.62
2018-02-17T07:21:19.253Z,1019.61
2018-02-17T07:22:28.692Z,1019.61
2018-02-17T07:23:38.388Z,1019.59
2018-02-17T07:24:48.104Z,1019.63
2018-02-17T07:25:58.080Z,1019.6
2018-02-17T07:27:07.524Z,1019.58
2018-02-17T07:28:17.488Z,1019.56
2018-02-17T07:29:27.454Z,1019.56
2018-02-17T07:30:37.151Z,1019.55
2018-02-17T07:31:47.125Z,1019.54
2018-02-17T07:32:56.825Z,1019.52
2018-02-17T07:34:06.260Z,1019.49
2018-02-17T07:35:16.238Z,1019.47
2018-02-17T07:36:26.200Z,1019.46
2018-02-17T07:37:36.176Z,1019.44
2018-02-17T07:38:45.871Z,1019.48
2018-02-17T07:39:55.841Z,1019.44
2018-02-17T07:41:05.293Z,1019.43
2018-02-17T07:42:15.241Z,1019.38
2018-02-17T07:43:24.933Z,1019.41
2018-02-17T07:44:34.924Z,1019.37
2018-02-17T07:45:44.682Z,1019.38
2018-02-17T07:46:54.460Z,1019.38
2018-02-17T07:48:04.475Z,1019.35
2018-02-17T07:49:14.176Z,1019.35
2018-02-17T07:50:23.135Z,1019.32
2018-02-17T07:51:32.598Z,1019.37
2018-02-17T07:52:42.692Z,1019.38
2018-02-17T07:53:52.420Z,1019.4
2018-02-17T07:55:02.155Z,1019.39
2018-02-17T07:56:12.123Z,1019.35
2018-02-17T07:57:22.091Z,1019.38
2018-02-17T07:58:31.534Z,1019.35
2018-02-17T07:59:41.502Z,1019.3
2018-02-17T08:00:51.457Z,1019.3
2018-02-17T08:02:00.923Z,1019.3
2018-02-17T08:03:10.875Z,1019.27
2018-02-17T08:04:20.846Z,1019.3
2018-02-17T08:05:30.809Z,1019.32
2018-02-17T08:06:40.763Z,1019.33
2018-02-17T08:07:50.203Z,1019.3
2018-02-17T08:08:59.384Z,1019.29
2018-02-17T08:10:08.558Z,1019.32
2018-02-17T08:11:18.533Z,1019.27
2018-02-17T08:12:28.249Z,1019.27
2018-02-17T08:13:38.203Z,1019.24
2018-02-17T08:14:48.175Z,1019.25
2018-02-17T08:15:58.137Z,1019.25
2018-02-17T08:17:08.129Z,1019.31
2018-02-17T08:18:18.111Z,1019.36
2018-02-17T08:19:28.077Z,1019.34
2018-02-17T08:20:38.045Z,1019.34
2018-02-17T08:21:47.997Z,1019.33
2018-02-17T08:22:57.962Z,1019.35
2018-02-17T08:24:07.936Z,1019.33
2018-02-17T08:25:17.628Z,1019.33
2018-02-17T08:26:27.593Z,1019.35
2018-02-17T08:27:37.291Z,1019.3
2018-02-17T08:28:47.262Z,1019.32
2018-02-17T08:29:57.209Z,1019.29
2018-02-17T08:31:06.924Z,1019.3
2018-02-17T08:32:16.883Z,1019.33
2018-02-17T08:33:26.599Z,1019.32
2018-02-17T08:34:36.322Z,1019.3
2018-02-17T08:35:46.298Z,1019.3
2018-02-17T08:36:55.995Z,1019.3
2018-02-17T08:38:05.694Z,1019.3
2018-02-17T08:39:15.409Z,1019.26
2018-02-17T08:40:25.389Z,1019.25
2018-02-17T08:41:35.085Z,1019.25
2018-02-17T08:42:45.038Z,1019.25
2018-02-17T08:43:54.992Z,1019.3
2018-02-17T08:45:04.725Z,1019.31
2018-02-17T08:46:14.427Z,1019.31
2018-02-17T08:47:24.124Z,1019.27
2018-02-17T08:48:33.838Z,1019.27
2018-02-17T08:49:43.799Z,1019.26
2018-02-17T08:50:53.010Z,1019.25
2018-02-17T08:52:02.508Z,1019.26
2018-02-17T08:53:12.264Z,1019.2
2018-02-17T08:54:21.979Z,1019.21
2018-02-17T08:55:31.946Z,1019.21
2018-02-17T08:56:41.671Z,1019.21
2018-02-17T08:57:50.857Z,1019.17
2018-02-17T08:59:00.307Z,1019.13
2018-02-17T09:00:09.755Z,1019.12
2018-02-17T09:01:19.220Z,1019.11
2018-02-17T09:02:29.196Z,1019.12
2018-02-17T09:03:38.900Z,1019.1
2018-02-17T09:04:48.585Z,1019.09
2018-02-17T09:05:58.294Z,1019.04
2018-02-17T09:07:07.990Z,1019.05
2018-02-17T09:08:17.730Z,1019.03
2018-02-17T09:09:27.699Z,1019.03
2018-02-17T09:10:37.399Z,1019
2018-02-17T09:11:46.844Z,1019
2018-02-17T09:12:56.600Z,1019.03
2018-02-17T09:14:06.296Z,1018.97
2018-02-17T09:15:16.006Z,1018.97
2018-02-17T09:16:25.976Z,1018.96
2018-02-17T09:17:35.418Z,1018.99
2018-02-17T09:18:45.369Z,1018.96
2018-02-17T09:19:55.142Z,1018.98
2018-02-17T09:21:04.591Z,1018.98
2018-02-17T09:22:14.290Z,1018.92
2018-02-17T09:23:24.246Z,1018.92
2018-02-17T09:24:33.957Z,1018.93
2018-02-17T09:25:43.662Z,1018.9
2018-02-17T09:26:53.119Z,1018.85
2018-02-17T09:28:02.827Z,1018.85
2018-02-17T09:29:12.800Z,1018.84
2018-02-17T09:30:22.773Z,1018.79
2018-02-17T09:31:32.525Z,1018.85
2018-02-17T09:32:42.227Z,1018.81
2018-02-17T09:33:51.953Z,1018.82
2018-02-17T09:35:01.936Z,1018.82
2018-02-17T09:36:11.900Z,1018.79
2018-02-17T09:37:21.613Z,1018.77
2018-02-17T09:38:31.068Z,1018.81
2018-02-17T09:39:41.028Z,1018.76
2018-02-17T09:40:50.754Z,1018.77
2018-02-17T09:42:00.476Z,1018.76
2018-02-17T09:43:10.190Z,1018.76
2018-02-17T09:44:19.901Z,1018.68
2018-02-17T09:45:29.087Z,1018.71
2018-02-17T09:46:38.796Z,1018.72
2018-02-17T09:47:48.519Z,1018.67
2018-02-17T09:48:58.525Z,1018.67
2018-02-17T09:50:08.242Z,1018.66
2018-02-17T09:51:18.208Z,1018.65
2018-02-17T09:52:27.645Z,1018.66
2018-02-17T09:53:37.602Z,1018.71
2018-02-17T09:54:47.598Z,1018.73
2018-02-17T09:55:57.663Z,1018.74
2018-02-17T09:57:07.649Z,1018.74
2018-02-17T09:58:17.099Z,1018.76
2018-02-17T09:59:26.544Z,1018.75
2018-02-17T10:00:36.524Z,1018.77
2018-02-17T10:01:46.231Z,1018.75
2018-02-17T10:02:55.670Z,1018.77
2018-02-17T10:04:05.651Z,1018.8
2018-02-17T10:05:15.348Z,1018.79
2018-02-17T10:06:25.324Z,1018.75
2018-02-17T10:07:34.773Z,1018.83
2018-02-17T10:08:44.739Z,1018.8
2018-02-17T10:09:54.722Z,1018.79
2018-02-17T10:11:04.445Z,1018.82
2018-02-17T10:12:14.404Z,1018.86
2018-02-17T10:13:24.131Z,1018.83
2018-02-17T10:14:33.581Z,1018.87
2018-02-17T10:15:43.310Z,1018.87
2018-02-17T10:16:53.301Z,1018.84
2018-02-17T10:18:03.264Z,1018.85
2018-02-17T10:19:13.239Z,1018.84
2018-02-17T10:20:23.245Z,1018.86
2018-02-17T10:21:33.216Z,1018.88
2018-02-17T10:22:42.941Z,1018.92
2018-02-17T10:23:52.913Z,1018.92
2018-02-17T10:25:02.904Z,1018.94
2018-02-17T10:26:12.613Z,1018.96
2018-02-17T10:27:22.325Z,1018.97
2018-02-17T10:28:32.052Z,1018.96
2018-02-17T10:29:41.243Z,1018.97
2018-02-17T10:30:50.951Z,1019.02
2018-02-17T10:32:00.397Z,1019.02
2018-02-17T10:33:10.381Z,1018.99
2018-02-17T10:34:19.855Z,1019.01
2018-02-17T10:35:29.625Z,1019
2018-02-17T10:36:39.315Z,1019
2018-02-17T10:37:49.026Z,1018.99
2018-02-17T10:38:58.485Z,1018.99
2018-02-17T10:40:08.446Z,1019.01
2018-02-17T10:41:18.225Z,1018.99
2018-02-17T10:42:27.936Z,1019
2018-02-17T10:43:37.660Z,1018.99
2018-02-17T10:44:47.627Z,1019
2018-02-17T10:45:57.323Z,1018.98
2018-02-17T10:47:07.023Z,1018.98
2018-02-17T10:48:16.730Z,1018.99
2018-02-17T10:49:26.708Z,1018.99
2018-02-17T10:50:36.228Z,1019.02
2018-02-17T10:51:46.011Z,1019.02
2018-02-17T10:52:55.983Z,1018.99
2018-02-17T10:54:05.952Z,1018.97
2018-02-17T10:55:15.915Z,1018.96
2018-02-17T10:56:25.876Z,1018.94
2018-02-17T10:57:35.844Z,1018.95
2018-02-17T10:58:45.813Z,1018.97
2018-02-17T10:59:55.528Z,1018.96
2018-02-17T11:01:05.515Z,1018.94
2018-02-17T11:02:15.227Z,1018.96
2018-02-17T11:03:24.932Z,1018.98
2018-02-17T11:04:34.893Z,1018.99
2018-02-17T11:05:44.611Z,1018.95
2018-02-17T11:06:54.571Z,1018.94
2018-02-17T11:08:04.272Z,1018.93
2018-02-17T11:09:14.234Z,1018.9
2018-02-17T11:10:23.674Z,1018.95
2018-02-17T11:11:33.375Z,1018.91
2018-02-17T11:12:43.080Z,1018.87
2018-02-17T11:13:53.048Z,1018.88
2018-02-17T11:15:03.025Z,1018.87
2018-02-17T11:16:12.988Z,1018.87
2018-02-17T11:17:22.702Z,1018.86
2018-02-17T11:18:32.160Z,1018.85
2018-02-17T11:19:41.609Z,1018.87
2018-02-17T11:20:51.060Z,1018.84
2018-02-17T11:22:00.784Z,1018.84
2018-02-17T11:23:09.968Z,1018.81
2018-02-17T11:24:19.696Z,1018.84
2018-02-17T11:25:29.680Z,1018.83
2018-02-17T11:26:39.678Z,1018.78
2018-02-17T11:27:49.641Z,1018.76
2018-02-17T11:28:59.604Z,1018.77
2018-02-17T11:30:09.402Z,1018.74
2018-02-17T11:31:19.368Z,1018.7
2018-02-17T11:32:29.349Z,1018.73
2018-02-17T11:33:39.319Z,1018.74
2018-02-17T11:34:49.290Z,1018.73
2018-02-17T11:35:59.002Z,1018.73
2018-02-17T11:37:08.966Z,1018.71
2018-02-17T11:38:18.669Z,1018.7
2018-02-17T11:39:28.382Z,1018.69
2018-02-17T11:40:38.354Z,1018.72
2018-02-17T11:41:47.817Z,1018.7
2018-02-17T11:42:57.797Z,1018.72
2018-02-17T11:44:07.864Z,1018.7
2018-02-17T11:45:17.589Z,1018.69
2018-02-17T11:46:27.317Z,1018.69
2018-02-17T11:47:37.031Z,1018.67
2018-02-17T11:48:46.997Z,1018.68
2018-02-17T11:49:56.700Z,1018.61
2018-02-17T11:51:06.666Z,1018.64
2018-02-17T11:52:16.381Z,1018.64
2018-02-17T11:53:26.118Z,1018.61
2018-02-17T11:54:35.856Z,1018.6
2018-02-17T11:55:45.302Z,1018.59
2018-02-17T11:56:54.226Z,1018.6
2018-02-17T11:58:03.943Z,1018.6
2018-02-17T11:59:13.650Z,1018.62
2018-02-17T12:00:23.614Z,1018.59
2018-02-17T12:01:33.063Z,1018.62
2018-02-17T12:02:43.042Z,1018.61
2018-02-17T12:03:52.751Z,1018.58
2018-02-17T12:05:01.960Z,1018.59
2018-02-17T12:06:11.672Z,1018.59
2018-02-17T12:07:21.641Z,1018.58
2018-02-17T12:08:31.114Z,1018.58
2018-02-17T12:09:41.089Z,1018.61
2018-02-17T12:10:51.080Z,1018.6
2018-02-17T12:12:00.799Z,1018.62
2018-02-17T12:13:10.778Z,1018.62
2018-02-17T12:14:20.763Z,1018.6
2018-02-17T12:15:30.734Z,1018.59
2018-02-17T12:16:39.936Z,1018.58
2018-02-17T12:17:49.908Z,1018.58
2018-02-17T12:18:59.622Z,1018.57
2018-02-17T12:20:09.609Z,1018.58
2018-02-17T12:21:19.589Z,1018.57
2018-02-17T12:22:29.577Z,1018.53
2018-02-17T12:23:39.184Z,1018.55
2018-02-17T12:24:48.897Z,1018.57
2018-02-17T12:25:58.108Z,1018.57
2018-02-17T12:27:07.827Z,1018.55
2018-02-17T12:28:17.533Z,1018.5
2018-02-17T12:29:27.364Z,1018.54
2018-02-17T12:30:37.337Z,1018.53
2018-02-17T12:31:47.301Z,1018.54
2018-02-17T12:32:57.264Z,1018.51
2018-02-17T12:34:06.974Z,1018.47
2018-02-17T12:35:17.207Z,1018.51
2018-02-17T12:36:27.179Z,1018.48
2018-02-17T12:37:36.625Z,1018.48
2018-02-17T12:38:46.329Z,1018.45
2018-02-17T12:39:56.311Z,1018.47
2018-02-17T12:41:05.764Z,1018.42
2018-02-17T12:42:15.480Z,1018.46
2018-02-17T12:43:25.182Z,1018.43
2018-02-17T12:44:34.628Z,1018.46
2018-02-17T12:45:44.392Z,1018.46
2018-02-17T12:46:54.120Z,1018.42
2018-02-17T12:48:03.580Z,1018.42
2018-02-17T12:49:13.013Z,1018.41
2018-02-17T12:50:22.992Z,1018.41
2018-02-17T12:51:32.705Z,1018.4
2018-02-17T12:52:42.675Z,1018.37
2018-02-17T12:53:51.881Z,1018.41
2018-02-17T12:55:01.606Z,1018.39
2018-02-17T12:56:11.587Z,1018.41
2018-02-17T12:57:21.562Z,1018.38
2018-02-17T12:58:31.524Z,1018.35
2018-02-17T12:59:41.248Z,1018.34
2018-02-17T13:00:50.704Z,1018.32
2018-02-17T13:01:59.918Z,1018.32
2018-02-17T13:03:09.380Z,1018.35
2018-02-17T13:04:19.340Z,1018.31
2018-02-17T13:05:29.344Z,1018.34
2018-02-17T13:06:39.310Z,1018.32
2018-02-17T13:07:49.285Z,1018.3
2018-02-17T13:08:58.991Z,1018.29
2018-02-17T13:10:08.437Z,1018.29
2018-02-17T13:11:18.154Z,1018.27
2018-02-17T13:12:27.608Z,1018.22
2018-02-17T13:13:36.887Z,1018.19
2018-02-17T13:14:46.889Z,1018.23
2018-02-17T13:15:56.853Z,1018.22
2018-02-17T13:17:06.603Z,1018.24
2018-02-17T13:18:16.059Z,1018.27
2018-02-17T13:19:25.763Z,1018.27
2018-02-17T13:20:35.741Z,1018.23
2018-02-17T13:21:45.716Z,1018.26
2018-02-17T13:22:55.694Z,1018.21
2018-02-17T13:24:05.403Z,1018.14
2018-02-17T13:25:15.361Z,1018.21
2018-02-17T13:26:25.324Z,1018.23
2018-02-17T13:27:35.034Z,1018.22
2018-02-17T13:28:44.758Z,1018.2
2018-02-17T13:29:54.718Z,1018.2
2018-02-17T13:31:04.430Z,1018.16
2018-02-17T13:32:14.154Z,1018.16
2018-02-17T13:33:23.873Z,1018.18
2018-02-17T13:34:33.842Z,1018.17
2018-02-17T13:35:43.553Z,1018.19
2018-02-17T13:36:53.281Z,1018.15
2018-02-17T13:38:03.260Z,1018.19
2018-02-17T13:39:13.249Z,1018.19
2018-02-17T13:40:23.216Z,1018.18
2018-02-17T13:41:32.921Z,1018.19
2018-02-17T13:42:42.628Z,1018.18
2018-02-17T13:43:52.606Z,1018.2
2018-02-17T13:45:02.568Z,1018.18
2018-02-17T13:46:12.308Z,1018.19
2018-02-17T13:47:22.307Z,1018.16
2018-02-17T13:48:32.561Z,1018.16
2018-02-17T13:49:42.296Z,1018.14
2018-02-17T13:50:52.260Z,1018.13
2018-02-17T13:52:02.232Z,1018.13
2018-02-17T13:53:11.932Z,1018.11
2018-02-17T13:54:21.647Z,1018.11
2018-02-17T13:55:31.629Z,1018.12
2018-02-17T13:56:41.595Z,1018.17
2018-02-17T13:57:51.578Z,1018.13
2018-02-17T13:59:01.568Z,1018.09
2018-02-17T14:00:11.285Z,1018.14
2018-02-17T14:01:21.262Z,1018.13
2018-02-17T14:02:30.968Z,1018.16
2018-02-17T14:03:40.677Z,1018.16
2018-02-17T14:04:49.865Z,1018.16
2018-02-17T14:05:59.837Z,1018.15
2018-02-17T14:07:09.580Z,1018.17